Royal City, WA

5:47 AM PDT on September 21, 2014 (GMT -0700)
N Royal Lake | Change Station
CLOSE
Current Station
Personal Weather Station
Location: Othello, WA
Elevation: 883 ft
Nearby Weather Stations

Elev 883 ft 46.88 °N, 119.37 °W | Updated 6 minutes ago

Clear
Clear
52.3 °F
Feels Like 52.3 °F
N
0.0
Wind Variable Wind from NE

Today
High -- | Low -- °F
--% Chance of Precip.
Yesterday
High -- | Low -- °F
Precip. -- in
6:43 AM 6:57 PM
Waning Crescent, 7% visible
Pressure 29.96 in
Visibility 10.0 miles
Clouds Clear
Dew Point 47 °F
Humidity 82%
Rainfall 0.00 in
Snow Depth 0 in , 0 in , 0 in
UV 0 out of 12
Pollen 3.20 out of 12
Air Quality Not available.
Flu Activity Not available.
METAR KMWH 211152Z AUTO 35006KT 10SM CLR 11/05 A2998 RMK AO2 SLP145 T01110050 10178 20111 56004

More Conditions Fewer Conditions

Pressure 29.96 in
Visibility 10.0 miles
Clouds Clear
Dew Point 47 °F
Humidity 82%
Rainfall 0.00 in
Snow Depth 0 in , 0 in , 0 in
UV 0 out of 12
Pollen 3.20 out of 12
Air Quality Not available.
Flu Activity Not available.
METAR KMWH 211152Z AUTO 35006KT 10SM CLR 11/05 A2998 RMK AO2 SLP145 T01110050 10178 20111 56004

More Conditions Fewer Conditions

10-Day Weather Forecast

Almanac

Astronomy

Sep. 21, 2014 Rise Set
Actual Time 6:43 AM PDT 6:57 PM PDT
Civil Twilight 6:13 AM PDT 7:28 PM PDT
Nautical Twilight 5:37 AM PDT 8:03 PM PDT
Astronomical Twilight 5:00 AM PDT 8:40 PM PDT
Moon 4:15 AM PDT 5:41 PM PDT
Length of Visible Light 13h 14m
Length of Day
12h 13m
Tomorrow will be 3m 20s shorter.
Waning Crescent, 7% of the Moon is Illuminated
Today
Waning Crescent
Sep 24
New
Oct 1
First Quarter
Oct 8
Full
Oct 15
Last Quarter

Today's Extremes

State Highs State Lows

Community

WunderPhotos

Upload Photos

1,755,127 photos uploaded!

Nearby

Snow Depth

Station Depth Elevation
Harts Pass 0 in 6500 ft
Alpine Meadows 0 in 3500 ft
Bunchgrass Meadow 0 in 5000 ft
June Lake 0 in 3340 ft
Sasse Ridge 0 in 4200 ft

Earthquake Activity

City Distance Mag. Time & Date
No recent earthquake activity has been reported nearby.
Minimum magnitude displayed is 2.5.

Coastal Water Temperatures

Place Temperature
No Stations Reporting

Nearby Weather Stations